Windhoek, Namibia
Current Conditions -  °F | °C
As of 12:00 PM on Friday 19 Dec 2014 (Local Time) from FBMN Reporting Station
Scattered Clouds Scattered Clouds  
Wind Chill: 88°   Ceiling: Unl
Heat Index: 90°   Visibility: 6mi
Dew Point: 66°   Wind: 7mph
Humidity: 49%   Direction: 30°NNE
Pressure: 29.94"   Gusts: NA
Location:  22.56°S, 17.09°E
Report Text: FBMN 191100Z 03006KT 9999 SCT030 FEW035CB 31/19 Q1014
Loading
Personal Weather Stations






























Interactive Weather Map New forecast layout! Learn more

10-Day Weather Forecast

Advertisements
Track Severe Weather on mobile